createdAt,value
2022-12-09T00:09:58.978Z,11.30
2022-12-09T00:15:08.355Z,9.82
2022-12-09T00:37:07.097Z,8.57
2022-12-09T00:48:38.062Z,8.40
2022-12-09T00:54:26.566Z,8.32
2022-12-09T00:59:40.216Z,7.47
2022-12-09T01:05:51.100Z,8.07
2022-12-09T01:11:06.980Z,8.30
2022-12-09T01:16:51.298Z,7.45
2022-12-09T01:21:59.361Z,7.97
2022-12-09T01:27:06.057Z,8.23
2022-12-09T02:06:49.040Z,8.68
2022-12-09T02:18:10.122Z,7.28
2022-12-09T02:30:32.797Z,7.38
2022-12-09T02:36:15.191Z,7.13
2022-12-09T02:47:13.885Z,7.38
2022-12-09T02:52:55.960Z,8.23
2022-12-09T02:58:15.078Z,8.50
2022-12-09T03:03:30.455Z,7.40
2022-12-09T03:08:51.566Z,7.72
2022-12-09T03:26:00.952Z,8.05
2022-12-09T03:31:10.004Z,8.10
2022-12-09T03:36:16.989Z,8.10
2022-12-09T03:41:29.718Z,8.48
2022-12-09T03:52:07.229Z,8.00
2022-12-09T03:57:18.490Z,8.00
2022-12-09T04:02:26.793Z,8.45
2022-12-09T04:07:30.972Z,8.55
2022-12-09T04:12:32.735Z,8.40
2022-12-09T04:17:35.178Z,9.65
2022-12-09T04:22:36.950Z,8.68
2022-12-09T04:27:46.810Z,9.05
2022-12-09T04:32:48.554Z,9.52
2022-12-09T04:37:50.436Z,9.13
2022-12-09T04:42:54.199Z,8.20
2022-12-09T04:47:58.311Z,7.97
2022-12-09T04:53:02.421Z,9.02
2022-12-09T05:04:28.292Z,8.45
2022-12-09T05:22:48.877Z,12.32
2022-12-09T05:27:58.019Z,11.73
2022-12-09T05:33:07.722Z,10.43
2022-12-09T05:38:09.572Z,10.30
2022-12-09T05:48:26.683Z,10.00
2022-12-09T05:53:29.152Z,10.35
2022-12-09T05:58:31.344Z,11.82
2022-12-09T06:03:36.614Z,13.77
2022-12-09T06:08:46.743Z,14.98
2022-12-09T06:13:49.712Z,15.40
2022-12-09T06:18:51.777Z,13.25
2022-12-09T06:23:53.669Z,13.20
2022-12-09T06:28:59.637Z,12.32
2022-12-09T06:34:02.047Z,12.13
2022-12-09T06:39:10.480Z,11.68
2022-12-09T06:44:17.214Z,10.48
2022-12-09T06:49:32.293Z,10.68
2022-12-09T06:54:34.061Z,10.10
2022-12-09T06:59:45.221Z,10.23
2022-12-09T07:04:47.203Z,11.32
2022-12-09T07:09:49.489Z,10.93
2022-12-09T07:14:51.536Z,10.88
2022-12-09T07:19:53.508Z,10.02
2022-12-09T07:24:55.391Z,10.95
2022-12-09T07:30:01.281Z,12.10
2022-12-09T07:35:03.173Z,12.07
2022-12-09T07:40:06.189Z,12.32
2022-12-09T07:50:39.024Z,12.38
2022-12-09T07:55:40.723Z,12.07
2022-12-09T08:00:42.246Z,13.50
2022-12-09T08:06:24.728Z,12.90
2022-12-09T08:11:30.195Z,16.38
2022-12-09T08:16:32.805Z,31.00
2022-12-09T08:21:34.527Z,27.98
2022-12-09T08:26:36.594Z,18.85
2022-12-09T08:31:41.876Z,12.63
2022-12-09T08:36:47.092Z,12.63
2022-12-09T08:41:49.037Z,13.93
2022-12-09T08:46:56.187Z,14.00
2022-12-09T08:52:02.669Z,13.50
2022-12-09T08:57:07.177Z,16.20
2022-12-09T09:02:15.666Z,16.63
2022-12-09T09:07:21.520Z,13.68
2022-12-09T09:12:23.550Z,12.35
2022-12-09T09:17:25.531Z,12.38
2022-12-09T09:22:27.304Z,11.85
2022-12-09T09:27:29.039Z,12.75
2022-12-09T09:32:30.654Z,11.48
2022-12-09T09:37:33.041Z,11.13
2022-12-09T09:42:43.914Z,13.30
2022-12-09T09:47:51.181Z,12.88
2022-12-09T09:52:55.203Z,11.90
2022-12-09T09:58:14.410Z,14.27
2022-12-09T10:04:06.939Z,13.35
2022-12-09T10:09:21.101Z,13.00
2022-12-09T10:14:49.040Z,14.27
2022-12-09T10:19:59.485Z,13.38
2022-12-09T10:25:22.290Z,12.82
2022-12-09T10:30:25.087Z,13.45
2022-12-09T10:35:32.534Z,13.93
2022-12-09T10:40:46.300Z,15.30
2022-12-09T10:51:30.038Z,14.25
2022-12-09T10:56:38.614Z,15.43
2022-12-09T11:01:59.973Z,16.08
2022-12-09T11:07:21.035Z,13.00
2022-12-09T11:12:32.049Z,12.15
2022-12-09T11:17:38.364Z,11.43
2022-12-09T11:22:44.050Z,11.30
2022-12-09T11:27:50.864Z,12.65
2022-12-09T11:33:08.077Z,12.23
2022-12-09T11:38:31.605Z,13.07
2022-12-09T11:43:50.773Z,13.80
2022-12-09T11:49:03.738Z,13.07
2022-12-09T11:54:13.562Z,14.60
2022-12-09T11:59:34.835Z,13.73
2022-12-09T12:04:48.644Z,13.75
2022-12-09T12:09:56.595Z,13.65
2022-12-09T12:20:53.956Z,13.80
2022-12-09T12:39:00.212Z,14.10
2022-12-09T12:56:30.619Z,15.50
2022-12-09T13:19:40.747Z,15.57
2022-12-09T13:36:58.969Z,13.10
2022-12-09T13:42:31.413Z,13.50
2022-12-09T13:48:00.624Z,11.05
2022-12-09T13:59:22.203Z,14.35
2022-12-09T14:05:04.091Z,12.68
2022-12-09T14:10:46.287Z,11.75
2022-12-09T14:16:16.482Z,11.52
2022-12-09T14:21:17.880Z,13.13
2022-12-09T14:26:37.079Z,13.40
2022-12-09T14:32:02.295Z,13.48
2022-12-09T14:37:33.568Z,12.18
2022-12-09T14:43:03.998Z,14.95
2022-12-09T14:48:12.032Z,14.13
2022-12-09T14:53:25.019Z,14.70
2022-12-09T14:58:29.206Z,13.68
2022-12-09T15:03:35.553Z,14.02
2022-12-09T15:08:41.700Z,15.45
2022-12-09T15:13:49.233Z,15.18
2022-12-09T15:18:52.317Z,15.80
2022-12-09T15:23:54.125Z,15.48
2022-12-09T15:28:57.024Z,15.63
2022-12-09T15:34:08.982Z,15.77
2022-12-09T15:39:25.346Z,16.33
2022-12-09T15:44:31.459Z,15.38
2022-12-09T15:49:40.528Z,16.50
2022-12-09T15:54:44.708Z,15.98
2022-12-09T16:00:07.706Z,16.40
2022-12-09T16:05:10.371Z,16.15
2022-12-09T16:10:16.905Z,15.55
2022-12-09T16:15:42.800Z,17.33
2022-12-09T16:20:55.697Z,14.88
2022-12-09T16:26:07.034Z,15.93
2022-12-09T16:31:17.939Z,16.60
2022-12-09T16:36:30.917Z,15.25
2022-12-09T16:41:51.141Z,16.83
2022-12-09T16:52:04.271Z,18.35
2022-12-09T16:57:05.830Z,16.52
2022-12-09T17:02:18.566Z,17.00
2022-12-09T17:07:20.102Z,17.08
2022-12-09T17:12:21.654Z,16.23
2022-12-09T17:17:23.137Z,15.38
2022-12-09T17:22:24.907Z,15.23
2022-12-09T17:27:26.330Z,16.27
2022-12-09T17:32:29.343Z,14.40
2022-12-09T17:37:30.947Z,16.70
2022-12-09T17:42:33.122Z,17.63
2022-12-09T17:47:34.791Z,16.58
2022-12-09T17:52:36.278Z,15.73
2022-12-09T17:57:47.686Z,16.02
2022-12-09T18:02:52.992Z,17.33
2022-12-09T18:07:54.596Z,17.27
2022-12-09T18:12:56.208Z,17.35
2022-12-09T18:17:57.684Z,16.77
2022-12-09T18:22:59.134Z,17.42
2022-12-09T18:28:00.580Z,18.00
2022-12-09T18:33:01.994Z,17.90
2022-12-09T18:38:09.658Z,16.92
2022-12-09T18:43:13.989Z,16.58
2022-12-09T18:48:15.306Z,18.63
2022-12-09T18:53:16.991Z,18.27
2022-12-09T18:58:27.259Z,18.58
2022-12-09T19:03:40.051Z,18.23
2022-12-09T19:08:41.519Z,21.73
2022-12-09T19:13:42.905Z,19.25
2022-12-09T19:18:45.153Z,19.98
2022-12-09T19:23:47.796Z,20.67
2022-12-09T19:28:58.335Z,21.73
2022-12-09T19:34:02.033Z,19.83
2022-12-09T19:39:05.742Z,21.15
2022-12-09T19:44:07.874Z,21.98
2022-12-09T19:49:12.331Z,21.23
2022-12-09T19:54:14.354Z,21.17
2022-12-09T19:59:15.846Z,18.67
2022-12-09T20:04:47.467Z,21.80
2022-12-09T20:09:41.797Z,19.92
2022-12-09T20:14:43.325Z,21.63
2022-12-09T20:19:44.946Z,22.80
2022-12-09T20:30:02.041Z,21.67
2022-12-09T20:35:08.154Z,21.08
2022-12-09T20:40:11.108Z,23.15
2022-12-09T20:45:15.166Z,19.27
2022-12-09T20:50:16.751Z,19.75
2022-12-09T20:55:18.172Z,19.45
2022-12-09T21:00:19.609Z,19.35
2022-12-09T21:05:21.079Z,20.98
2022-12-09T21:10:22.465Z,17.92
2022-12-09T21:15:24.019Z,20.77
2022-12-09T21:20:25.684Z,20.65
2022-12-09T21:25:27.188Z,21.50
2022-12-09T21:30:28.709Z,18.90
2022-12-09T21:35:30.484Z,19.05
2022-12-09T21:40:32.311Z,18.52
2022-12-09T21:45:34.593Z,20.10
2022-12-09T21:50:36.092Z,18.50
2022-12-09T21:55:37.482Z,20.50
2022-12-09T22:00:38.931Z,20.60
2022-12-09T22:05:43.164Z,20.88
2022-12-09T22:10:44.642Z,29.33
2022-12-09T22:15:46.069Z,19.63
2022-12-09T22:21:22.964Z,19.48
2022-12-09T22:26:11.624Z,17.65
2022-12-09T22:31:19.480Z,17.48
2022-12-09T22:36:22.084Z,17.05
2022-12-09T22:41:25.830Z,19.38
2022-12-09T22:46:30.519Z,19.20
2022-12-09T22:51:35.059Z,17.63
2022-12-09T22:56:39.777Z,18.25
2022-12-09T23:01:44.247Z,18.58
2022-12-09T23:06:45.801Z,18.77
2022-12-09T23:11:47.723Z,18.77
2022-12-09T23:16:49.180Z,17.80
2022-12-09T23:21:50.665Z,20.13
2022-12-09T23:26:54.855Z,17.88
2022-12-09T23:31:56.290Z,16.92
2022-12-09T23:36:57.750Z,16.15
2022-12-09T23:41:59.160Z,19.83
2022-12-09T23:47:00.678Z,17.15
2022-12-09T23:52:02.134Z,17.52
2022-12-09T23:57:03.710Z,17.38
